createdAt,value
2018-12-09T00:00:51.859Z,29.90
2018-12-09T00:03:20.110Z,29.90
2018-12-09T00:05:48.403Z,29.90
2018-12-09T00:08:16.642Z,29.90
2018-12-09T00:10:44.865Z,29.70
2018-12-09T00:13:13.097Z,29.30
2018-12-09T00:15:41.314Z,30.20
2018-12-09T00:18:09.597Z,30.90
2018-12-09T00:20:37.894Z,33.00
2018-12-09T00:23:06.105Z,40.80
2018-12-09T00:25:34.342Z,53.70
2018-12-09T00:28:02.593Z,62.50
2018-12-09T00:30:30.799Z,71.30
2018-12-09T00:32:59.087Z,77.60
2018-12-09T00:35:27.395Z,79.70
2018-12-09T00:37:55.655Z,83.70
2018-12-09T00:40:23.919Z,86.00
2018-12-09T00:42:52.176Z,86.40
2018-12-09T00:45:20.471Z,86.60
2018-12-09T00:47:48.711Z,89.50
2018-12-09T00:50:16.873Z,90.80
2018-12-09T00:52:45.128Z,91.10
2018-12-09T00:55:13.381Z,92.70
2018-12-09T00:57:41.675Z,93.40
2018-12-09T01:00:12.647Z,93.20
2018-12-09T01:02:42.875Z,93.70
2018-12-09T01:05:11.229Z,94.50
2018-12-09T01:07:39.430Z,92.60
2018-12-09T01:10:07.777Z,91.10
2018-12-09T01:12:36.026Z,90.60
2018-12-09T01:15:04.679Z,90.80
2018-12-09T01:17:32.937Z,90.70
2018-12-09T01:20:01.218Z,88.70
2018-12-09T01:22:29.471Z,88.70
2018-12-09T01:24:57.750Z,88.90
2018-12-09T01:27:26.078Z,90.00
2018-12-09T01:29:54.314Z,88.00
2018-12-09T01:32:22.903Z,87.10
2018-12-09T01:34:51.292Z,84.90
2018-12-09T01:37:19.536Z,83.70
2018-12-09T01:39:48.221Z,79.40
2018-12-09T01:42:16.540Z,78.70
2018-12-09T01:44:44.753Z,79.10
2018-12-09T01:47:12.968Z,77.60
2018-12-09T01:49:41.246Z,80.10
2018-12-09T01:52:09.517Z,81.90
2018-12-09T01:54:38.127Z,79.90
2018-12-09T01:57:06.345Z,78.30
2018-12-09T01:59:34.535Z,72.90
2018-12-09T02:02:02.965Z,70.20
2018-12-09T02:04:31.297Z,74.20
2018-12-09T02:06:59.502Z,69.60
2018-12-09T02:09:27.687Z,71.50
2018-12-09T02:11:55.955Z,67.80
2018-12-09T02:14:24.207Z,64.40
2018-12-09T02:16:52.414Z,63.00
2018-12-09T02:19:22.029Z,63.80
2018-12-09T02:21:50.422Z,61.90
2018-12-09T02:24:19.331Z,61.90
2018-12-09T02:26:47.554Z,61.90
2018-12-09T02:29:15.923Z,59.10
2018-12-09T02:31:44.177Z,57.80
2018-12-09T02:34:12.427Z,59.40
2018-12-09T02:36:40.653Z,60.60
2018-12-09T02:39:10.288Z,58.70
2018-12-09T02:41:38.522Z,57.80
2018-12-09T02:44:06.757Z,59.60
2018-12-09T02:46:35.373Z,57.00
2018-12-09T02:49:03.566Z,57.70
2018-12-09T02:51:32.051Z,56.80
2018-12-09T02:54:00.290Z,55.40
2018-12-09T02:56:28.515Z,53.60
2018-12-09T02:58:56.756Z,53.90
2018-12-09T03:01:25.005Z,51.20
2018-12-09T03:03:53.238Z,51.50
2018-12-09T03:06:21.473Z,50.10
2018-12-09T03:08:49.721Z,49.50
2018-12-09T03:11:17.947Z,50.40
2018-12-09T03:13:46.266Z,47.70
2018-12-09T03:16:14.628Z,48.50
2018-12-09T03:18:42.929Z,49.80
2018-12-09T03:21:11.511Z,47.90
2018-12-09T03:23:39.757Z,47.80
2018-12-09T03:26:08.039Z,46.80
2018-12-09T03:28:36.233Z,47.10
2018-12-09T03:31:04.467Z,47.60
2018-12-09T03:33:34.501Z,45.40
2018-12-09T03:36:02.937Z,46.20
2018-12-09T03:38:31.149Z,45.80
2018-12-09T03:40:59.366Z,47.50
2018-12-09T03:43:27.826Z,50.00
2018-12-09T03:45:56.065Z,47.70
2018-12-09T03:48:24.330Z,47.10
2018-12-09T03:50:52.544Z,49.40
2018-12-09T03:53:20.848Z,48.40
2018-12-09T03:55:49.249Z,47.80
2018-12-09T03:58:17.507Z,48.90
2018-12-09T04:00:45.758Z,46.70
2018-12-09T04:03:14.038Z,46.50
2018-12-09T04:05:42.245Z,45.70
2018-12-09T04:08:10.487Z,47.90
2018-12-09T04:10:38.754Z,46.80
2018-12-09T04:13:07.008Z,48.80
2018-12-09T04:15:42.552Z,49.70
2018-12-09T04:18:11.249Z,51.80
2018-12-09T04:20:39.500Z,52.50
2018-12-09T04:23:07.722Z,57.40
2018-12-09T04:25:35.939Z,60.10
2018-12-09T04:28:04.182Z,62.10
2018-12-09T04:30:32.455Z,61.30
2018-12-09T04:33:00.703Z,62.90
2018-12-09T04:35:28.961Z,63.40
2018-12-09T04:37:57.239Z,64.30
2018-12-09T04:40:25.446Z,64.60
2018-12-09T04:42:53.657Z,62.20
2018-12-09T04:45:21.913Z,61.20
2018-12-09T04:47:50.127Z,63.40
2018-12-09T04:50:18.390Z,60.50
2018-12-09T04:52:47.058Z,62.80
2018-12-09T04:55:15.267Z,62.60
2018-12-09T04:57:43.481Z,62.90
2018-12-09T05:00:23.139Z,58.70
2018-12-09T05:02:51.754Z,58.80
2018-12-09T05:05:19.982Z,58.20
2018-12-09T05:07:48.131Z,60.90
2018-12-09T05:10:16.368Z,66.10
2018-12-09T05:12:44.595Z,74.80
2018-12-09T05:15:13.168Z,81.10
2018-12-09T05:17:41.443Z,85.10
2018-12-09T05:20:09.599Z,89.00
2018-12-09T05:22:37.722Z,90.90
2018-12-09T05:25:05.988Z,94.50
2018-12-09T05:27:40.696Z,95.10
2018-12-09T05:30:09.047Z,96.80
2018-12-09T05:32:37.262Z,96.90
2018-12-09T05:35:05.521Z,98.10
2018-12-09T05:37:34.278Z,97.80
2018-12-09T05:40:02.520Z,97.70
2018-12-09T05:42:30.779Z,97.80
2018-12-09T05:44:58.963Z,98.10
2018-12-09T05:47:27.164Z,97.20
2018-12-09T05:49:55.638Z,95.50
2018-12-09T05:52:23.786Z,94.00
2018-12-09T05:54:51.982Z,95.00
2018-12-09T05:57:20.272Z,94.80
2018-12-09T05:59:48.494Z,96.40
2018-12-09T06:02:28.471Z,96.20
2018-12-09T06:04:56.766Z,94.30
2018-12-09T06:07:24.987Z,94.90
2018-12-09T06:09:53.283Z,95.70
2018-12-09T06:12:22.003Z,95.60
2018-12-09T06:14:50.242Z,95.30
2018-12-09T06:17:18.443Z,95.00
2018-12-09T06:19:46.658Z,94.10
2018-12-09T06:22:14.930Z,93.70
2018-12-09T06:24:43.180Z,91.90
2018-12-09T06:27:11.444Z,92.90
2018-12-09T06:29:39.910Z,92.10
2018-12-09T06:32:08.127Z,93.00
2018-12-09T06:34:37.563Z,93.50
2018-12-09T06:37:05.767Z,93.80
2018-12-09T06:39:33.984Z,93.00
2018-12-09T06:42:03.077Z,93.00
2018-12-09T06:44:31.387Z,93.80
2018-12-09T06:46:59.643Z,94.80
2018-12-09T06:49:27.932Z,91.90
2018-12-09T06:51:56.212Z,93.10
2018-12-09T06:54:24.506Z,93.20
2018-12-09T06:56:52.783Z,93.10
2018-12-09T06:59:21.047Z,93.80
2018-12-09T07:01:49.328Z,93.90
2018-12-09T07:04:17.521Z,94.50
2018-12-09T07:06:45.784Z,95.00
2018-12-09T07:09:13.998Z,95.90
2018-12-09T07:11:42.312Z,96.10
2018-12-09T07:14:10.627Z,96.70
2018-12-09T07:16:39.537Z,97.00
2018-12-09T07:19:07.860Z,97.20
2018-12-09T07:24:10.826Z,97.20
2018-12-09T07:26:39.048Z,93.90
2018-12-09T07:29:07.256Z,94.50
2018-12-09T07:31:35.466Z,92.90
2018-12-09T07:34:03.687Z,93.80
2018-12-09T07:36:32.336Z,92.00
2018-12-09T07:39:00.695Z,91.10
2018-12-09T07:41:29.006Z,91.70
2018-12-09T07:43:57.270Z,90.40
2018-12-09T07:46:25.515Z,88.90
2018-12-09T07:48:54.246Z,86.90
2018-12-09T07:51:22.683Z,88.50
2018-12-09T07:53:50.935Z,85.60
2018-12-09T07:56:19.391Z,83.20
2018-12-09T07:58:47.806Z,83.40
2018-12-09T08:01:16.042Z,82.80
2018-12-09T08:03:44.301Z,78.70
2018-12-09T08:06:12.517Z,81.20
2018-12-09T08:08:40.824Z,81.60
2018-12-09T08:11:09.064Z,80.30
2018-12-09T08:13:37.284Z,78.90
2018-12-09T08:16:05.510Z,79.60
2018-12-09T08:18:33.737Z,77.70
2018-12-09T08:21:01.952Z,76.90
2018-12-09T08:23:30.186Z,73.70
2018-12-09T08:25:58.399Z,74.00
2018-12-09T08:28:26.630Z,73.30
2018-12-09T08:30:54.841Z,69.80
2018-12-09T08:33:23.080Z,71.00
2018-12-09T08:35:51.281Z,69.00
2018-12-09T08:38:19.504Z,70.40
2018-12-09T08:40:47.708Z,68.30
2018-12-09T08:43:16.311Z,66.90
2018-12-09T08:45:44.497Z,68.40
2018-12-09T08:48:12.770Z,67.70
2018-12-09T08:50:40.998Z,65.20
2018-12-09T08:53:09.305Z,69.00
2018-12-09T08:55:37.510Z,65.70
2018-12-09T08:58:05.865Z,61.90
2018-12-09T09:00:34.127Z,63.20
2018-12-09T09:03:02.303Z,60.80
2018-12-09T09:05:30.602Z,62.00
2018-12-09T09:07:58.757Z,63.40
2018-12-09T09:10:27.031Z,64.50
2018-12-09T09:12:55.227Z,64.30
2018-12-09T09:15:23.422Z,61.80
2018-12-09T09:17:51.547Z,65.30
2018-12-09T09:20:20.045Z,64.80
2018-12-09T09:22:48.359Z,59.10
2018-12-09T09:25:16.622Z,59.90
2018-12-09T09:27:44.878Z,58.30
2018-12-09T09:30:13.126Z,58.60
2018-12-09T09:32:41.486Z,57.40
2018-12-09T09:35:09.699Z,59.00
2018-12-09T09:37:37.970Z,58.70
2018-12-09T09:40:07.875Z,56.80
2018-12-09T09:42:36.114Z,59.10
2018-12-09T09:45:05.018Z,56.70
2018-12-09T09:47:33.259Z,57.20
2018-12-09T09:50:01.450Z,56.40
2018-12-09T09:52:29.671Z,57.30
2018-12-09T09:54:57.939Z,57.60
2018-12-09T09:57:26.130Z,57.20
2018-12-09T09:59:54.366Z,58.00
2018-12-09T10:02:22.565Z,55.50
2018-12-09T10:04:50.743Z,54.80
2018-12-09T10:07:18.921Z,57.80
2018-12-09T10:09:47.054Z,56.80
2018-12-09T10:12:17.062Z,57.50
2018-12-09T10:14:45.537Z,57.00
2018-12-09T10:17:13.758Z,56.90
2018-12-09T10:19:41.994Z,55.10
2018-12-09T10:22:10.226Z,56.00
2018-12-09T10:24:38.460Z,53.90
2018-12-09T10:27:06.718Z,54.20
2018-12-09T10:29:34.966Z,55.90
2018-12-09T10:32:03.199Z,52.40
2018-12-09T10:34:38.605Z,52.50
2018-12-09T10:37:01.727Z,53.20
2018-12-09T10:39:29.950Z,52.10
2018-12-09T10:41:58.247Z,52.90
2018-12-09T10:44:26.499Z,54.90
2018-12-09T10:46:54.752Z,54.60
2018-12-09T10:49:22.958Z,55.60
2018-12-09T10:51:51.221Z,56.30
2018-12-09T10:54:19.338Z,55.50
2018-12-09T10:56:47.538Z,55.50
2018-12-09T10:59:15.702Z,54.50
2018-12-09T11:01:49.445Z,53.50
2018-12-09T11:04:17.736Z,53.80
2018-12-09T11:06:46.002Z,52.30
2018-12-09T11:09:14.181Z,52.30
2018-12-09T11:11:42.490Z,51.50
2018-12-09T11:14:10.680Z,54.10
2018-12-09T11:16:38.932Z,51.30
2018-12-09T11:19:07.066Z,51.10
2018-12-09T11:21:35.318Z,50.40
2018-12-09T11:24:03.513Z,48.70
2018-12-09T11:26:31.741Z,49.10
2018-12-09T11:29:01.151Z,47.30
2018-12-09T11:31:29.611Z,50.10
2018-12-09T11:33:57.850Z,48.50
2018-12-09T11:36:26.045Z,46.40
2018-12-09T11:38:54.291Z,45.80
2018-12-09T11:41:22.514Z,45.80
2018-12-09T11:43:50.683Z,46.90
2018-12-09T11:46:18.899Z,45.10
2018-12-09T11:48:47.205Z,46.80
2018-12-09T11:51:15.530Z,46.90
2018-12-09T11:53:43.730Z,47.40
2018-12-09T11:56:11.927Z,48.10
2018-12-09T11:58:40.143Z,47.00
2018-12-09T12:01:08.395Z,47.30
2018-12-09T12:03:36.639Z,47.50
2018-12-09T12:06:04.919Z,48.50
2018-12-09T12:08:33.427Z,48.50
2018-12-09T12:11:01.672Z,47.90
2018-12-09T12:13:29.861Z,48.00
2018-12-09T12:15:58.106Z,47.80
2018-12-09T12:18:26.326Z,46.90
2018-12-09T12:20:54.591Z,48.30
2018-12-09T12:23:22.818Z,49.40
2018-12-09T12:25:51.079Z,51.30
2018-12-09T12:28:19.359Z,51.80
2018-12-09T12:30:47.609Z,52.00
2018-12-09T12:33:15.866Z,52.10
2018-12-09T12:35:44.114Z,53.20
2018-12-09T12:38:12.287Z,55.80
2018-12-09T12:40:40.489Z,56.40
2018-12-09T12:43:08.767Z,57.00
2018-12-09T12:45:43.658Z,57.90
2018-12-09T12:48:11.935Z,59.10
2018-12-09T12:50:40.352Z,58.80
2018-12-09T12:53:08.640Z,61.00
2018-12-09T12:55:36.883Z,62.50
2018-12-09T12:58:05.230Z,64.80
2018-12-09T13:00:33.483Z,63.20
2018-12-09T13:03:01.710Z,63.80
2018-12-09T13:05:29.967Z,66.10
2018-12-09T13:07:58.123Z,64.90
2018-12-09T13:10:26.374Z,66.00
2018-12-09T13:12:54.514Z,66.20
2018-12-09T13:15:22.876Z,66.10
2018-12-09T13:17:51.314Z,66.00
2018-12-09T13:20:19.560Z,68.40
2018-12-09T13:22:47.803Z,67.20
2018-12-09T13:25:16.047Z,68.50
2018-12-09T13:27:44.579Z,67.30
2018-12-09T13:30:12.854Z,68.80
2018-12-09T13:32:41.114Z,67.40
2018-12-09T13:35:09.345Z,67.30
2018-12-09T13:37:37.561Z,69.00
2018-12-09T13:40:05.797Z,68.70
2018-12-09T13:42:34.035Z,69.10
2018-12-09T13:45:02.276Z,70.50
2018-12-09T13:47:30.513Z,69.10
2018-12-09T13:50:05.213Z,71.00
2018-12-09T13:52:33.557Z,73.00
2018-12-09T13:55:01.826Z,78.40
2018-12-09T13:57:30.057Z,79.60
2018-12-09T13:59:58.318Z,75.10
2018-12-09T14:02:26.554Z,81.10
2018-12-09T14:04:54.810Z,82.60
2018-12-09T14:07:23.046Z,84.60
2018-12-09T14:09:52.411Z,85.30
2018-12-09T14:12:20.890Z,87.80
2018-12-09T14:14:49.096Z,86.90
2018-12-09T14:17:17.342Z,86.80
2018-12-09T14:19:45.603Z,84.50
2018-12-09T14:22:15.687Z,83.70
2018-12-09T14:24:43.989Z,84.60
2018-12-09T14:27:13.315Z,83.60
2018-12-09T14:29:41.718Z,85.40
2018-12-09T14:32:10.255Z,83.50
2018-12-09T14:34:38.862Z,85.10
2018-12-09T14:37:07.383Z,85.30
2018-12-09T14:46:34.026Z,85.50
2018-12-09T14:49:02.159Z,87.20
2018-12-09T14:51:30.611Z,86.40
2018-12-09T14:53:58.875Z,86.00
2018-12-09T14:56:27.172Z,86.90
2018-12-09T14:58:55.523Z,86.20
2018-12-09T15:01:23.715Z,84.80
2018-12-09T15:03:51.979Z,83.80
2018-12-09T15:06:20.283Z,83.60
2018-12-09T15:08:53.737Z,82.90
2018-12-09T15:11:22.682Z,82.50
2018-12-09T15:13:51.380Z,82.40
2018-12-09T15:16:19.650Z,81.70
2018-12-09T15:18:48.119Z,80.40
2018-12-09T15:21:16.371Z,80.30
2018-12-09T15:23:44.902Z,80.40
2018-12-09T15:26:14.206Z,79.50
2018-12-09T15:28:42.518Z,78.30
2018-12-09T15:31:10.771Z,78.70
2018-12-09T15:33:38.975Z,79.00
2018-12-09T15:36:07.247Z,77.50
2018-12-09T15:38:35.482Z,78.50
2018-12-09T15:41:03.951Z,77.20
2018-12-09T15:43:32.373Z,77.30
2018-12-09T15:46:00.616Z,77.20
2018-12-09T15:48:29.240Z,76.90
2018-12-09T15:50:57.611Z,76.40
2018-12-09T15:53:25.867Z,76.70
2018-12-09T15:55:54.116Z,76.40
2018-12-09T15:58:22.934Z,76.60
2018-12-09T16:00:55.770Z,75.60
2018-12-09T16:03:24.023Z,76.20
2018-12-09T16:05:52.314Z,77.30
2018-12-09T16:08:20.498Z,76.60
2018-12-09T16:10:48.792Z,76.60
2018-12-09T16:13:17.143Z,77.60
2018-12-09T16:15:45.402Z,78.70
2018-12-09T16:18:13.684Z,78.20
2018-12-09T16:20:41.890Z,79.10
2018-12-09T16:23:10.131Z,78.30
2018-12-09T16:25:38.462Z,78.60
2018-12-09T16:44:45.673Z,79.00
2018-12-09T16:47:16.856Z,79.10
2018-12-09T16:49:48.822Z,78.80
2018-12-09T16:52:19.361Z,76.80
2018-12-09T16:54:52.967Z,78.50
2018-12-09T16:57:22.578Z,76.90
2018-12-09T16:59:52.130Z,75.10
2018-12-09T17:02:27.526Z,75.30
2018-12-09T17:04:56.105Z,73.10
2018-12-09T17:07:24.334Z,72.90
2018-12-09T17:09:53.040Z,71.60
2018-12-09T17:12:21.361Z,69.50
2018-12-09T17:14:49.570Z,68.80
2018-12-09T17:17:17.817Z,69.40
2018-12-09T17:19:46.014Z,68.40
2018-12-09T17:22:14.282Z,66.60
2018-12-09T17:24:42.547Z,66.60
2018-12-09T17:27:12.936Z,66.40
2018-12-09T17:29:41.256Z,67.00
2018-12-09T17:32:09.527Z,65.70
2018-12-09T17:34:37.784Z,64.20
2018-12-09T17:37:06.038Z,64.80
2018-12-09T17:39:34.454Z,64.20
2018-12-09T17:42:02.736Z,64.80
2018-12-09T17:44:30.950Z,63.40
2018-12-09T17:47:00.675Z,63.20
2018-12-09T17:49:28.936Z,63.50
2018-12-09T17:51:57.175Z,63.90
2018-12-09T17:54:25.865Z,63.10
2018-12-09T17:56:54.135Z,63.30
2018-12-09T17:59:23.404Z,64.10
2018-12-09T18:01:51.670Z,62.50
2018-12-09T18:04:19.926Z,63.60
2018-12-09T18:06:48.100Z,64.10
2018-12-09T18:09:16.299Z,66.60
2018-12-09T18:11:44.597Z,69.00
2018-12-09T18:14:12.906Z,69.80
2018-12-09T18:16:41.592Z,70.90
2018-12-09T18:19:10.509Z,70.50
2018-12-09T18:21:38.755Z,69.80
2018-12-09T18:24:06.967Z,70.20
2018-12-09T18:26:35.656Z,71.90
2018-12-09T18:29:04.493Z,72.70
2018-12-09T18:31:33.044Z,74.60
2018-12-09T18:34:01.395Z,75.10
2018-12-09T18:36:30.178Z,74.30
2018-12-09T18:38:58.503Z,72.40
2018-12-09T18:41:26.728Z,70.50
2018-12-09T18:43:54.971Z,70.70
2018-12-09T18:46:23.227Z,68.30
2018-12-09T18:48:51.503Z,68.80
2018-12-09T18:51:19.780Z,67.20
2018-12-09T18:53:48.062Z,66.30
2018-12-09T18:56:16.280Z,68.30
2018-12-09T18:58:46.531Z,67.20
2018-12-09T19:01:14.913Z,64.90
2018-12-09T19:03:43.185Z,65.20
2018-12-09T19:06:11.487Z,64.80
2018-12-09T19:08:39.795Z,64.40
2018-12-09T19:11:08.051Z,66.00
2018-12-09T19:13:36.322Z,66.20
2018-12-09T19:16:04.580Z,67.40
2018-12-09T19:18:32.762Z,67.30
2018-12-09T19:21:01.074Z,71.70
2018-12-09T19:23:29.306Z,75.10
2018-12-09T19:25:57.568Z,76.70
2018-12-09T19:28:25.835Z,78.80
2018-12-09T19:30:54.095Z,78.70
2018-12-09T19:33:22.288Z,79.30
2018-12-09T19:35:50.541Z,79.00
2018-12-09T19:38:18.750Z,79.30
2018-12-09T19:40:47.073Z,78.40
2018-12-09T19:43:15.283Z,79.30
2018-12-09T19:45:43.506Z,81.20
2018-12-09T19:48:11.756Z,82.60
2018-12-09T19:50:40.079Z,83.60
2018-12-09T19:53:08.326Z,85.10
2018-12-09T19:55:36.574Z,86.40
2018-12-09T19:58:04.841Z,84.00
2018-12-09T20:00:33.103Z,85.70
2018-12-09T20:03:01.462Z,85.80
2018-12-09T20:05:29.719Z,85.90
2018-12-09T20:07:57.956Z,84.50
2018-12-09T20:10:26.255Z,83.30
2018-12-09T20:12:54.509Z,84.80
2018-12-09T20:15:22.745Z,83.50
2018-12-09T20:17:51.023Z,83.20
2018-12-09T20:20:19.346Z,83.40
2018-12-09T20:22:47.572Z,84.30
2018-12-09T20:25:15.849Z,84.90
2018-12-09T20:27:44.106Z,84.80
2018-12-09T20:30:12.380Z,84.80
2018-12-09T20:32:40.583Z,84.80
2018-12-09T20:35:08.826Z,84.40
2018-12-09T20:37:37.079Z,83.40
2018-12-09T20:40:05.357Z,82.60
2018-12-09T20:42:33.613Z,76.40
2018-12-09T20:45:01.885Z,77.10
2018-12-09T20:47:30.127Z,77.60
2018-12-09T20:49:58.482Z,77.50
2018-12-09T20:52:26.639Z,73.60
2018-12-09T20:54:54.904Z,75.50
2018-12-09T20:57:23.166Z,74.50
2018-12-09T20:59:51.375Z,73.80
2018-12-09T21:02:19.537Z,75.50
2018-12-09T21:04:47.851Z,75.90
2018-12-09T21:07:16.111Z,79.90
2018-12-09T21:09:44.398Z,83.50
2018-12-09T21:12:12.638Z,82.10
2018-12-09T21:14:40.890Z,84.90
2018-12-09T21:17:09.120Z,87.20
2018-12-09T21:19:37.344Z,87.80
2018-12-09T21:22:05.574Z,85.80
2018-12-09T21:24:33.886Z,88.00
2018-12-09T21:27:02.108Z,88.30
2018-12-09T21:29:30.330Z,89.00
2018-12-09T21:31:58.639Z,88.30
2018-12-09T21:34:27.021Z,88.90
2018-12-09T21:36:55.344Z,87.90
2018-12-09T21:39:23.586Z,89.10
2018-12-09T21:41:52.003Z,89.90
2018-12-09T21:44:20.192Z,88.00
2018-12-09T21:46:48.408Z,87.60
2018-12-09T21:49:16.606Z,87.60
2018-12-09T21:51:44.883Z,88.10
2018-12-09T21:54:13.089Z,88.80
2018-12-09T21:56:41.330Z,88.10
2018-12-09T21:59:09.539Z,88.60
2018-12-09T22:01:37.795Z,86.30
2018-12-09T22:06:40.722Z,86.20
2018-12-09T22:09:08.975Z,86.10
2018-12-09T22:11:37.246Z,84.10
2018-12-09T22:14:05.506Z,84.90
2018-12-09T22:16:33.848Z,82.90
2018-12-09T22:19:02.081Z,82.80
2018-12-09T22:21:30.380Z,82.00
2018-12-09T22:23:58.627Z,75.80
2018-12-09T22:26:26.876Z,78.30
2018-12-09T22:28:55.049Z,77.30
2018-12-09T22:31:23.269Z,76.70
2018-12-09T22:33:51.505Z,78.30
2018-12-09T22:36:19.707Z,77.40
2018-12-09T22:38:47.963Z,75.10
2018-12-09T22:41:16.233Z,74.00
2018-12-09T22:43:44.346Z,71.70
2018-12-09T22:46:12.665Z,71.60
2018-12-09T22:48:40.868Z,71.30
2018-12-09T22:51:09.127Z,68.40
2018-12-09T22:53:37.383Z,69.00
2018-12-09T22:56:05.611Z,70.00
2018-12-09T22:58:33.885Z,69.60
2018-12-09T23:01:07.510Z,68.70
2018-12-09T23:03:35.791Z,69.10
2018-12-09T23:06:04.043Z,70.50
2018-12-09T23:08:32.495Z,68.40
2018-12-09T23:11:00.720Z,69.50
2018-12-09T23:13:28.942Z,70.30
2018-12-09T23:15:57.114Z,71.10
2018-12-09T23:18:26.651Z,68.60
2018-12-09T23:20:55.105Z,68.90
2018-12-09T23:23:23.343Z,71.00
2018-12-09T23:25:51.610Z,69.00
2018-12-09T23:28:19.826Z,68.60
2018-12-09T23:30:48.021Z,70.00
2018-12-09T23:33:16.226Z,67.70
2018-12-09T23:35:44.428Z,64.60
2018-12-09T23:38:12.661Z,64.10
2018-12-09T23:40:40.911Z,62.90
2018-12-09T23:43:09.129Z,63.40
2018-12-09T23:45:37.403Z,62.60
2018-12-09T23:48:05.591Z,64.80
2018-12-09T23:50:33.798Z,59.10
2018-12-09T23:53:02.011Z,59.10
2018-12-09T23:55:30.155Z,59.50
2018-12-09T23:57:58.331Z,60.60
